Time;durP1;ratioP1;P1;durP2;ratioP2;P2;SDS_P1;SDS_P2;PMS_P1;PMS_P2;Temp;Humidity;BMP_temperature;BMP_pressure;BME280_temperature;BME280_humidity;BME280_pressure;Samples;Min_cycle;Max_cycle;Signal;HPM_P1;HPM_P2
2021/06/10 08:33:48;;;;;;;;;;;;;;;;;;1915389;73;67275;-55
2021/06/10 08:36:18;;;;;;;;;;;;;;;;;;1813595;78;20139;-55
2021/06/10 14:03:18;;;;;;;5.42;2.45;;;;;;;23.92;47.24;100674.19;1924252;74;26430;-65
2021/06/10 14:05:47;;;;;;;6.08;2.50;;;;;;;23.54;48.00;100710.95;1885037;76;21150;-60
2021/06/10 14:08:15;;;;;;;12.28;2.95;;;;;;;23.32;48.82;100711.61;1922313;75;21034;-61
2021/06/10 14:10:43;;;;;;;6.47;2.90;;;;;;;23.23;49.46;100705.75;1922332;75;21094;-60
2021/06/10 14:13:12;;;;;;;3.85;2.20;;;;;;;23.11;49.50;100699.66;1922380;75;21038;-56
2021/06/10 14:15:44;;;;;;;6.60;2.55;;;;;;;22.96;50.15;100685.79;1922472;75;21015;-57
2021/06/10 14:18:12;;;;;;;4.60;2.70;;;;;;;22.82;50.78;100715.77;1922390;75;21042;-57
2021/06/10 14:20:41;;;;;;;6.03;3.02;;;;;;;22.71;51.01;100716.23;1922409;75;21030;-57
2021/06/10 14:23:10;;;;;;;3.47;2.80;;;;;;;22.75;51.28;100717.64;1921974;75;21078;-59
2021/06/10 14:25:39;;;;;;;3.85;2.98;;;;;;;22.77;51.60;100723.38;1921895;75;21066;-58
2021/06/10 14:28:08;;;;;;;3.75;2.47;;;;;;;22.65;51.98;100722.17;1922295;75;21081;-58
2021/06/10 14:33:10;;;;;;;3.27;2.08;;;;;;;22.66;52.27;100723.01;1922255;74;21124;-61
2021/06/10 14:35:38;;;;;;;4.65;2.50;;;;;;;22.56;52.37;100735.08;1922474;75;21129;-59
2021/06/10 14:38:08;;;;;;;7.72;3.83;;;;;;;22.41;53.07;100725.23;1922369;75;21093;-59
2021/06/10 14:40:40;;;;;;;5.25;2.77;;;;;;;22.42;52.95;100726.06;1922547;75;21079;-61
2021/06/10 14:43:08;;;;;;;4.27;2.70;;;;;;;22.40;53.25;100725.36;1922754;75;21120;-60
2021/06/10 14:45:37;;;;;;;5.20;2.70;;;;;;;22.38;53.34;100727.33;1922477;75;21050;-61
2021/06/10 14:48:06;;;;;;;5.47;2.37;;;;;;;22.28;53.26;100721.91;1922284;75;21112;-62
2021/06/10 14:50:34;;;;;;;3.42;2.50;;;;;;;22.19;53.25;100715.52;1922376;75;21098;-64
2021/06/10 14:53:02;;;;;;;5.55;2.55;;;;;;;22.18;53.66;100715.16;1922522;75;21492;-62
2021/06/10 14:55:29;;;;;;;4.75;2.33;;;;;;;22.17;54.19;100710.30;1922538;75;21494;-61
2021/06/10 14:57:57;;;;;;;5.65;3.00;;;;;;;22.17;53.82;100705.43;1922492;75;21570;-62
2021/06/10 15:00:26;;;;;;;4.45;2.83;;;;;;;22.12;53.72;100706.33;1922317;75;21559;-64
2021/06/10 15:02:54;;;;;;;3.58;2.87;;;;;;;22.06;54.36;100706.84;1912793;73;21524;-62
2021/06/10 15:05:22;;;;;;;4.20;2.65;;;;;;;22.00;54.86;100705.55;1923113;74;21492;-60
2021/06/10 15:07:50;;;;;;;2.67;2.25;;;;;;;21.98;54.96;100697.67;1924580;74;21466;-59
2021/06/10 15:10:18;;;;;;;8.15;2.72;;;;;;;21.95;54.32;100704.63;1924804;74;21438;-59
2021/06/10 15:12:46;;;;;;;6.50;3.67;;;;;;;21.92;54.49;100695.51;1891876;74;21050;-59
2021/06/10 15:15:14;;;;;;;7.20;2.72;;;;;;;21.83;54.41;100697.66;1887922;76;21123;-58
2021/06/10 15:17:42;;;;;;;7.92;2.70;;;;;;;21.80;54.48;100693.92;1888120;76;21054;-59
2021/06/10 15:20:10;;;;;;;6.85;2.70;;;;;;;21.79;54.81;100697.58;1888259;76;21002;-62
2021/06/10 15:22:38;;;;;;;5.90;2.90;;;;;;;21.72;54.76;100697.75;1888092;76;21183;-60
2021/06/10 15:25:08;;;;;;;4.60;3.25;;;;;;;21.69;55.09;100693.98;1888157;76;21532;-60
2021/06/10 15:27:36;;;;;;;4.37;2.80;;;;;;;21.61;55.20;100693.31;1918148;74;21080;-60
2021/06/10 15:30:06;;;;;;;7.00;2.85;;;;;;;21.56;55.38;100696.41;1924022;74;21530;-60
2021/06/10 15:32:34;;;;;;;4.87;2.95;;;;;;;21.53;55.67;100697.16;1923955;74;21030;-61
2021/06/10 15:35:02;;;;;;;5.58;3.00;;;;;;;21.45;55.96;100688.45;1923974;74;21124;-58
2021/06/10 15:37:29;;;;;;;6.75;3.37;;;;;;;21.39;56.04;100695.61;1924098;74;21075;-59
2021/06/10 15:39:57;;;;;;;6.47;2.90;;;;;;;21.34;56.08;100703.19;1924007;74;21568;-63
2021/06/10 15:42:25;;;;;;;5.25;2.98;;;;;;;21.28;56.26;100688.48;1924063;74;21131;-59
2021/06/10 15:44:53;;;;;;;6.50;3.15;;;;;;;21.25;56.28;100695.47;1924031;74;21570;-59
2021/06/10 15:47:24;;;;;;;5.03;2.47;;;;;;;21.24;56.74;100687.55;1924078;74;21591;-62
2021/06/10 15:49:50;;;;;;;7.45;2.95;;;;;;;21.19;56.62;100691.95;1923528;74;21087;-59
2021/06/10 15:52:19;;;;;;;5.40;2.95;;;;;;;21.09;57.01;100689.70;1924105;74;21055;-59
2021/06/10 15:54:46;;;;;;;5.95;3.15;;;;;;;21.06;57.45;100683.27;1923997;74;21170;-59
2021/06/10 15:57:14;;;;;;;7.72;3.10;;;;;;;21.01;57.87;100684.50;1924056;74;21067;-59
2021/06/10 15:59:42;;;;;;;6.67;2.85;;;;;;;20.95;58.08;100679.67;1923997;74;21480;-60
2021/06/10 16:02:11;;;;;;;5.97;3.30;;;;;;;20.87;58.59;100687.98;1923963;74;21473;-59
2021/06/10 16:04:38;;;;;;;5.75;2.83;;;;;;;20.82;58.59;100682.53;1877942;76;21076;-59
2021/06/10 16:07:06;;;;;;;5.50;3.45;;;;;;;20.75;58.95;100689.83;1877863;76;21095;-59
2021/06/10 16:09:35;;;;;;;6.80;2.90;;;;;;;20.70;59.18;100687.55;1877952;76;21103;-60
2021/06/10 16:12:03;;;;;;;3.87;2.60;;;;;;;20.68;59.41;100687.33;1878067;76;21510;-59
2021/06/10 16:14:31;;;;;;;5.47;3.27;;;;;;;20.66;59.35;100690.12;1877919;76;21089;-60
2021/06/10 16:16:59;;;;;;;5.15;3.17;;;;;;;20.59;59.74;100688.89;1877374;76;21068;-59
2021/06/10 16:19:29;;;;;;;7.22;3.40;;;;;;;20.52;60.04;100682.34;1877944;76;21075;-62
2021/06/10 16:21:56;;;;;;;5.33;2.87;;;;;;;20.47;60.41;100678.69;1877721;76;21155;-62
2021/06/10 16:24:24;;;;;;;4.83;2.77;;;;;;;20.41;60.22;100681.37;1878020;76;21011;-61
2021/06/10 16:26:52;;;;;;;7.60;3.40;;;;;;;20.36;60.30;100675.58;1877942;76;21083;-59
2021/06/10 16:29:20;;;;;;;5.03;3.17;;;;;;;20.29;60.55;100677.05;1878025;76;21058;-63
2021/06/10 16:31:48;;;;;;;9.73;3.33;;;;;;;20.21;60.59;100666.11;1877945;76;21138;-59
2021/06/10 16:34:15;;;;;;;4.15;2.72;;;;;;;20.11;60.95;100670.02;1877884;76;21140;-59
2021/06/10 16:36:45;;;;;;;5.50;3.33;;;;;;;20.07;61.21;100664.56;1878065;76;21468;-59
2021/06/10 16:39:12;;;;;;;9.43;3.42;;;;;;;20.03;61.27;100669.30;1878060;76;21145;-59
2021/06/10 16:41:40;;;;;;;6.15;3.05;;;;;;;19.96;61.84;100666.75;1877941;76;21055;-59
2021/06/10 16:44:09;;;;;;;5.37;2.83;;;;;;;19.91;61.92;100670.77;1877911;76;21142;-58
2021/06/10 16:46:37;;;;;;;4.95;3.33;;;;;;;19.84;61.96;100673.06;1877986;76;21039;-59
2021/06/10 16:49:05;;;;;;;6.10;2.85;;;;;;;19.77;62.65;100678.52;1877988;76;21638;-59
2021/06/10 16:51:33;;;;;;;7.95;3.95;;;;;;;19.74;62.67;100674.78;1878002;76;21056;-59
2021/06/10 16:54:01;;;;;;;5.35;3.70;;;;;;;19.68;62.96;100675.59;1877965;76;21111;-59
2021/06/10 16:56:28;;;;;;;6.08;4.80;;;;;;;19.63;63.36;100669.75;1877960;76;21091;-59
2021/06/10 16:59:01;;;;;;;5.97;4.45;;;;;;;19.58;63.84;100674.59;1878049;76;21067;-59
2021/06/10 17:01:32;;;;;;;6.37;3.92;;;;;;;19.54;64.24;100678.48;1876875;76;21099;-59
2021/06/10 17:04:03;;;;;;;5.90;4.00;;;;;;;19.48;64.33;100678.47;1887883;75;21118;-58
2021/06/10 17:06:39;;;;;;;7.92;3.72;;;;;;;19.44;64.34;100672.13;1905267;75;21102;-59
2021/06/10 17:09:11;;;;;;;12.13;4.03;;;;;;;19.39;64.37;100675.67;1905304;75;21064;-60
2021/06/10 17:11:41;;;;;;;6.37;4.20;;;;;;;19.33;64.83;100678.33;1904987;75;21136;-59
2021/06/10 17:14:11;;;;;;;8.50;3.67;;;;;;;19.24;64.98;100677.70;1903681;75;21046;-61
2021/06/10 17:16:41;;;;;;;8.63;4.78;;;;;;;19.19;64.98;100683.38;1905262;74;21157;-60
2021/06/10 17:19:11;;;;;;;13.88;6.17;;;;;;;19.13;64.95;100689.19;1905181;75;20999;-62
2021/06/10 17:21:40;;;;;;;10.32;5.87;;;;;;;19.09;64.82;100687.73;1905200;75;21081;-62
2021/06/10 17:24:08;;;;;;;10.58;4.55;;;;;;;19.01;64.87;100680.77;1905108;75;21139;-63
2021/06/10 17:26:37;;;;;;;13.80;4.33;;;;;;;18.94;64.89;100684.41;1905464;75;21525;-60
2021/06/10 17:29:10;;;;;;;9.95;3.90;;;;;;;18.84;65.02;100685.55;1905218;74;21070;-62
2021/06/10 17:31:36;;;;;;;9.68;3.87;;;;;;;18.79;65.36;100673.00;1833178;78;21069;-60
2021/06/10 17:34:05;;;;;;;7.90;4.25;;;;;;;18.74;65.83;100676.52;1847863;78;21047;-61
2021/06/10 17:36:33;;;;;;;7.55;3.95;;;;;;;18.68;65.95;100674.28;1847760;78;21579;-61
2021/06/10 17:39:01;;;;;;;7.75;3.95;;;;;;;18.64;66.11;100674.16;1847809;78;21043;-59
2021/06/10 17:41:30;;;;;;;8.30;4.72;;;;;;;18.61;66.13;100676.58;1847827;78;21141;-59
2021/06/10 17:43:58;;;;;;;6.33;3.72;;;;;;;18.58;66.03;100673.28;1847867;78;21130;-59
2021/06/10 17:46:26;;;;;;;9.30;4.20;;;;;;;18.54;66.06;100675.33;1847898;78;21497;-59
2021/06/10 17:48:54;;;;;;;8.60;4.72;;;;;;;18.51;66.30;100671.05;1847847;78;21063;-59
2021/06/10 17:51:22;;;;;;;8.33;4.47;;;;;;;18.45;66.36;100666.17;1847718;78;21047;-58
2021/06/10 17:53:51;;;;;;;7.60;4.22;;;;;;;18.38;66.54;100668.92;1847990;78;21049;-59
2021/06/10 17:56:19;;;;;;;6.33;4.55;;;;;;;18.31;66.80;100674.33;1848019;78;21066;-59
2021/06/10 17:58:47;;;;;;;7.97;3.70;;;;;;;18.25;67.03;100681.44;1847947;78;21493;-59
2021/06/10 18:01:15;;;;;;;11.38;5.15;;;;;;;18.20;67.11;100676.91;1847925;78;21490;-59
2021/06/10 18:03:43;;;;;;;16.80;7.70;;;;;;;18.13;67.82;100681.37;1845595;78;21510;-60
2021/06/10 18:06:11;;;;;;;15.13;6.60;;;;;;;18.09;68.62;100683.89;1836278;78;21552;-59
2021/06/10 18:08:39;;;;;;;12.75;6.37;;;;;;;18.03;69.23;100692.30;1836391;78;21538;-59
2021/06/10 18:11:09;;;;;;;14.03;6.97;;;;;;;17.98;69.21;100694.42;1836407;78;21463;-59
2021/06/10 18:13:37;;;;;;;10.58;7.25;;;;;;;17.91;68.92;100696.69;1836296;78;21043;-59
2021/06/10 18:16:05;;;;;;;12.80;7.37;;;;;;;17.87;69.05;100702.33;1835736;78;21138;-59
2021/06/10 18:18:33;;;;;;;13.05;6.50;;;;;;;17.82;69.17;100704.45;1836171;78;21196;-59
2021/06/10 18:21:01;;;;;;;11.78;6.55;;;;;;;17.76;68.95;100703.05;1837407;78;21012;-63
2021/06/10 18:23:29;;;;;;;10.95;6.10;;;;;;;17.72;68.88;100702.89;1842292;78;21587;-62
2021/06/10 18:25:57;;;;;;;10.98;5.83;;;;;;;17.72;69.07;100706.43;1824900;78;21489;-62
2021/06/10 18:28:24;;;;;;;11.63;5.62;;;;;;;17.69;69.24;100713.78;1812062;79;21469;-61
2021/06/10 18:30:52;;;;;;;9.45;6.33;;;;;;;17.69;69.09;100714.62;1811905;79;21580;-64
2021/06/10 18:33:20;;;;;;;11.85;6.15;;;;;;;17.67;69.04;100715.20;1812198;79;21447;-63
2021/06/10 18:35:50;;;;;;;10.75;5.67;;;;;;;17.61;68.86;100714.28;1812105;79;21463;-61
2021/06/10 18:38:18;;;;;;;7.30;4.70;;;;;;;17.53;68.79;100716.14;1812214;78;21082;-61
2021/06/10 18:40:45;;;;;;;5.50;4.33;;;;;;;17.46;68.77;100716.67;1812055;79;21137;-61
2021/06/10 18:43:13;;;;;;;7.08;5.20;;;;;;;17.38;68.91;100716.36;1812185;79;21028;-61
2021/06/10 18:45:41;;;;;;;8.13;5.15;;;;;;;17.33;68.95;100720.65;1812106;79;21650;-59
2021/06/10 18:48:09;;;;;;;8.68;5.12;;;;;;;17.30;69.23;100728.83;1812151;79;21074;-59
2021/06/10 18:50:37;;;;;;;10.00;5.35;;;;;;;17.26;69.59;100725.52;1812342;79;21055;-58
2021/06/10 18:53:05;;;;;;;9.05;5.95;;;;;;;17.22;69.73;100728.51;1812217;79;21157;-58
2021/06/10 18:55:33;;;;;;;11.25;6.17;;;;;;;17.19;69.66;100725.58;1812315;79;21037;-62
2021/06/10 18:58:01;;;;;;;10.43;6.22;;;;;;;17.12;69.68;100728.28;1812202;79;21082;-58
2021/06/10 19:00:28;;;;;;;10.78;5.42;;;;;;;17.08;69.85;100738.27;1812225;79;21184;-58
2021/06/10 19:02:56;;;;;;;12.10;5.97;;;;;;;17.05;69.92;100734.95;1812186;79;21137;-58
2021/06/10 19:05:24;;;;;;;9.70;5.72;;;;;;;17.02;69.92;100739.14;1812322;79;21177;-59
2021/06/10 19:07:52;;;;;;;11.20;5.70;;;;;;;16.95;69.97;100746.20;1812168;79;21498;-59
2021/06/10 19:10:20;;;;;;;8.20;5.05;;;;;;;16.90;70.06;100752.30;1812194;79;21121;-59
2021/06/10 19:12:48;;;;;;;7.42;4.37;;;;;;;16.85;70.27;100757.05;1812144;79;21159;-58
2021/06/10 19:15:16;;;;;;;6.95;4.92;;;;;;;16.83;70.53;100755.45;1812223;79;21591;-59
2021/06/10 19:17:44;;;;;;;9.83;5.42;;;;;;;16.81;70.72;100753.34;1812266;79;21027;-59
2021/06/10 19:20:12;;;;;;;14.60;6.28;;;;;;;16.76;70.87;100761.12;1812301;79;21062;-58
2021/06/10 19:22:42;;;;;;;10.50;5.85;;;;;;;16.72;70.87;100760.95;1812192;79;21054;-58
2021/06/10 19:25:12;;;;;;;8.43;5.42;;;;;;;16.68;71.03;100757.27;1812010;79;21115;-59
2021/06/10 19:27:40;;;;;;;8.95;5.62;;;;;;;16.61;71.29;100759.46;1812250;79;21149;-59
2021/06/10 19:30:09;;;;;;;14.53;6.80;;;;;;;16.57;71.45;100763.27;1812183;79;21525;-59
2021/06/10 19:32:45;;;;;;;8.15;5.30;;;;;;;16.52;71.38;100752.92;1812202;79;21129;-59
2021/06/10 19:35:09;;;;;;;8.93;4.40;;;;;;;16.52;71.28;100748.09;1811139;79;21152;-59
2021/06/10 19:37:37;;;;;;;8.83;4.95;;;;;;;16.48;71.68;100761.20;1812080;79;21051;-59
2021/06/10 19:40:07;;;;;;;5.55;4.70;;;;;;;16.44;71.96;100761.87;1812279;79;21566;-59
2021/06/10 19:42:35;;;;;;;5.28;4.20;;;;;;;16.39;72.29;100758.16;1812367;79;21131;-59
2021/06/10 19:45:04;;;;;;;8.13;4.60;;;;;;;16.36;72.32;100761.52;1812181;79;21509;-58
2021/06/10 19:47:33;;;;;;;8.63;4.78;;;;;;;16.36;72.40;100762.84;1812201;79;21129;-58
2021/06/10 19:50:03;;;;;;;7.60;4.85;;;;;;;16.34;72.41;100764.72;1812204;79;21078;-60
2021/06/10 19:52:30;;;;;;;7.92;5.47;;;;;;;16.33;72.24;100769.19;1812144;79;21072;-58
2021/06/10 19:54:58;;;;;;;19.23;7.92;;;;;;;16.30;72.35;100772.02;1812233;79;21054;-59
2021/06/10 19:57:26;;;;;;;11.60;7.55;;;;;;;16.27;72.44;100766.05;1811642;79;21502;-62
2021/06/10 19:59:54;;;;;;;12.70;7.92;;;;;;;16.22;72.44;100771.66;1812115;79;21540;-61
2021/06/10 20:02:22;;;;;;;11.45;7.17;;;;;;;16.18;72.47;100764.84;1812118;79;21498;-64
2021/06/10 20:04:50;;;;;;;19.55;8.58;;;;;;;16.16;72.49;100767.59;1815171;77;21555;-60
2021/06/10 20:07:18;;;;;;;34.90;17.73;;;;;;;16.12;72.54;100768.73;1892273;76;21040;-61
2021/06/10 20:09:46;;;;;;;17.25;11.40;;;;;;;16.09;72.64;100766.25;1892171;76;21111;-60
2021/06/10 20:12:14;;;;;;;20.60;12.70;;;;;;;16.05;72.69;100764.74;1892206;76;21166;-61
2021/06/10 20:14:42;;;;;;;16.65;10.93;;;;;;;16.01;72.79;100761.90;1892402;76;21616;-60
2021/06/10 20:17:10;;;;;;;9.35;7.28;;;;;;;15.96;73.00;100758.67;1892210;76;21199;-61
2021/06/10 20:19:38;;;;;;;9.78;6.70;;;;;;;15.94;73.14;100763.22;1892598;76;21593;-62
2021/06/10 20:22:07;;;;;;;9.15;6.20;;;;;;;15.92;73.47;100765.13;1892229;76;21505;-63
2021/06/10 20:24:36;;;;;;;12.63;7.42;;;;;;;15.91;73.66;100767.38;1892343;76;21067;-61
2021/06/10 20:32:27;;;;;;;23.18;13.83;;;;;;;15.91;73.47;100770.03;1892286;76;21108;-59
2021/06/10 20:34:55;;;;;;;13.45;9.43;;;;;;;15.90;73.42;100770.97;1892420;76;21151;-59
2021/06/10 20:37:23;;;;;;;17.62;11.10;;;;;;;15.87;73.50;100764.54;1892417;76;21515;-58
2021/06/10 20:39:51;;;;;;;19.23;13.50;;;;;;;15.85;73.55;100775.73;1892430;76;21462;-60
2021/06/10 20:42:20;;;;;;;19.23;11.80;;;;;;;15.80;73.55;100771.53;1892214;76;21632;-59
2021/06/10 20:44:48;;;;;;;21.73;9.90;;;;;;;15.74;73.58;100770.58;1892303;76;21102;-59
2021/06/10 20:47:15;;;;;;;21.87;13.25;;;;;;;15.67;73.71;100771.86;1892276;76;21620;-59
2021/06/10 20:49:43;;;;;;;21.27;12.47;;;;;;;15.61;73.87;100773.56;1892303;76;21075;-59
2021/06/10 20:52:11;;;;;;;15.18;8.03;;;;;;;15.54;73.98;100770.41;1892309;76;21103;-59
2021/06/10 20:54:39;;;;;;;16.67;7.85;;;;;;;15.50;74.09;100770.70;1892290;76;21173;-59
2021/06/10 20:57:07;;;;;;;12.00;7.45;;;;;;;15.46;74.25;100771.83;1892297;76;21141;-60
2021/06/10 20:59:35;;;;;;;11.48;7.70;;;;;;;15.44;74.37;100764.80;1892375;76;21172;-59
2021/06/10 21:02:05;;;;;;;15.98;9.33;;;;;;;15.42;74.39;100766.69;1892417;76;21080;-59
2021/06/10 21:04:33;;;;;;;17.90;9.40;;;;;;;15.40;74.52;100771.24;1891941;76;21127;-59
2021/06/10 21:07:01;;;;;;;17.95;9.65;;;;;;;15.38;74.70;100774.91;1868720;76;21586;-59
2021/06/10 21:09:29;;;;;;;20.50;9.45;;;;;;;15.35;74.74;100771.98;1864095;77;21516;-59
2021/06/10 21:11:57;;;;;;;31.80;19.30;;;;;;;15.29;74.68;100769.69;1864234;77;21453;-59
2021/06/10 21:14:25;;;;;;;29.95;20.97;;;;;;;15.22;74.69;100767.86;1864184;76;21481;-59
2021/06/10 21:16:53;;;;;;;30.08;16.37;;;;;;;15.16;74.74;100761.59;1864265;77;21562;-59
2021/06/10 21:19:21;;;;;;;23.15;15.30;;;;;;;15.12;74.86;100757.86;1864182;77;21461;-60
2021/06/10 21:21:50;;;;;;;19.02;11.28;;;;;;;15.08;74.88;100751.03;1864168;77;21453;-60
2021/06/10 21:24:18;;;;;;;22.50;12.82;;;;;;;15.02;75.01;100757.06;1864082;77;21086;-60
2021/06/10 21:26:46;;;;;;;23.18;12.73;;;;;;;14.97;75.34;100767.55;1864178;77;21132;-60
2021/06/10 21:29:14;;;;;;;21.10;11.60;;;;;;;14.91;75.54;100751.53;1864200;77;21046;-60
2021/06/10 21:31:42;;;;;;;20.50;10.53;;;;;;;14.88;75.60;100759.64;1864192;77;21029;-60
2021/06/10 21:34:09;;;;;;;14.03;10.10;;;;;;;14.86;75.62;100761.53;1864284;77;21370;-60
2021/06/10 21:36:37;;;;;;;14.47;8.73;;;;;;;14.83;75.67;100763.89;1864073;77;21069;-60
2021/06/10 21:39:05;;;;;;;14.03;8.55;;;;;;;14.82;75.70;100764.83;1864207;77;21018;-60
2021/06/10 21:41:33;;;;;;;12.95;8.25;;;;;;;14.82;75.83;100765.30;1864170;76;21441;-60
2021/06/10 21:44:02;;;;;;;17.70;7.40;;;;;;;14.79;75.97;100761.48;1864159;76;21562;-60
2021/06/10 21:46:30;;;;;;;11.10;7.30;;;;;;;14.77;76.08;100758.08;1864131;77;21085;-59
2021/06/10 21:48:58;;;;;;;15.05;7.58;;;;;;;14.74;76.17;100760.92;1864043;77;21116;-59
2021/06/10 21:51:26;;;;;;;12.30;8.40;;;;;;;14.72;76.12;100756.14;1864174;77;21108;-60
2021/06/10 21:53:54;;;;;;;13.70;7.55;;;;;;;14.66;76.11;100747.62;1864225;77;21539;-59
2021/06/10 21:56:21;;;;;;;11.63;7.08;;;;;;;14.62;76.24;100747.38;1864200;77;21507;-60
2021/06/10 21:58:49;;;;;;;14.28;7.55;;;;;;;14.59;76.37;100740.95;1864310;76;21567;-60
2021/06/10 22:01:17;;;;;;;11.33;6.83;;;;;;;14.57;76.48;100746.81;1864220;77;21504;-60
2021/06/10 22:03:45;;;;;;;14.47;7.75;;;;;;;14.55;76.57;100745.13;1864173;77;21609;-60
2021/06/10 22:06:13;;;;;;;11.90;6.78;;;;;;;14.55;76.54;100740.72;1864086;75;21622;-59
2021/06/10 22:08:41;;;;;;;11.65;8.00;;;;;;;14.53;76.54;100738.59;1864108;77;21088;-59
2021/06/10 22:11:09;;;;;;;14.45;8.28;;;;;;;14.52;76.68;100734.25;1864139;77;21512;-59
2021/06/10 22:13:37;;;;;;;13.05;8.23;;;;;;;14.50;76.94;100740.11;1864060;77;21619;-60
2021/06/10 22:16:06;;;;;;;13.45;7.83;;;;;;;14.49;77.08;100737.06;1864026;77;21532;-60
2021/06/10 22:18:34;;;;;;;13.53;7.20;;;;;;;14.48;77.13;100741.52;1864142;76;21046;-59
2021/06/10 22:21:03;;;;;;;10.05;7.05;;;;;;;14.43;77.39;100741.38;1864258;76;21113;-60
2021/06/10 22:23:31;;;;;;;9.53;6.78;;;;;;;14.42;77.38;100731.71;1864136;77;21192;-59
2021/06/10 22:25:59;;;;;;;10.95;7.37;;;;;;;14.41;77.38;100733.99;1864296;77;21046;-59
2021/06/10 22:28:27;;;;;;;12.00;7.37;;;;;;;14.39;77.35;100728.77;1864171;77;21062;-60
2021/06/10 22:30:55;;;;;;;11.40;7.97;;;;;;;14.38;77.37;100740.77;1864243;77;21641;-60
2021/06/10 22:33:23;;;;;;;13.53;7.65;;;;;;;14.38;77.40;100742.09;1864354;76;21487;-59
2021/06/10 22:35:53;;;;;;;9.90;7.05;;;;;;;14.38;77.52;100735.47;1864253;77;21069;-59
2021/06/10 22:38:23;;;;;;;11.22;7.12;;;;;;;14.39;77.62;100739.84;1864218;77;21061;-60
2021/06/10 22:40:54;;;;;;;10.20;7.00;;;;;;;14.37;77.86;100743.90;1864152;77;21081;-60
2021/06/10 22:43:24;;;;;;;10.72;7.37;;;;;;;14.36;77.94;100735.55;1864169;77;21038;-59
2021/06/10 22:45:53;;;;;;;12.75;6.87;;;;;;;14.37;77.95;100729.81;1864199;77;21046;-60
2021/06/10 22:48:22;;;;;;;10.50;7.00;;;;;;;14.36;78.11;100726.28;1864223;77;21648;-59
2021/06/10 22:50:50;;;;;;;10.00;7.22;;;;;;;14.38;78.21;100732.83;1864243;77;21073;-59
2021/06/10 22:53:24;;;;;;;9.08;6.28;;;;;;;14.40;78.41;100731.79;1864257;76;21574;-59
2021/06/10 22:55:55;;;;;;;11.05;6.97;;;;;;;14.43;78.33;100727.66;1864148;77;21057;-60
2021/06/10 22:58:24;;;;;;;12.45;7.67;;;;;;;14.45;78.31;100728.91;1864155;77;21018;-59
2021/06/10 23:00:54;;;;;;;9.08;7.10;;;;;;;14.49;78.44;100729.11;1864249;77;21042;-59
2021/06/10 23:03:22;;;;;;;9.28;6.50;;;;;;;14.48;78.36;100726.09;1864248;77;21049;-59
2021/06/10 23:05:51;;;;;;;12.90;7.55;;;;;;;14.50;78.44;100728.19;1864205;77;21081;-60
2021/06/10 23:08:19;;;;;;;11.00;7.25;;;;;;;14.53;78.41;100726.67;1862020;75;21235;-60
2021/06/10 23:10:47;;;;;;;12.18;7.05;;;;;;;14.49;78.43;100725.14;1861986;77;21568;-60
2021/06/10 23:13:16;;;;;;;11.43;7.10;;;;;;;14.47;78.51;100725.22;1861813;77;21057;-58
2021/06/10 23:15:44;;;;;;;9.40;6.92;;;;;;;14.47;78.60;100730.99;1862022;77;21023;-58
2021/06/10 23:18:12;;;;;;;12.00;7.28;;;;;;;14.43;78.55;100726.81;1861805;77;21446;-59
2021/06/10 23:20:41;;;;;;;13.62;7.87;;;;;;;14.40;78.55;100729.14;1861750;77;21097;-60
2021/06/10 23:23:09;;;;;;;11.80;7.40;;;;;;;14.39;78.57;100731.91;1861787;77;21045;-60
2021/06/10 23:25:38;;;;;;;10.40;7.28;;;;;;;14.38;78.61;100731.02;1861803;77;21034;-60
2021/06/10 23:28:07;;;;;;;12.18;7.53;;;;;;;14.35;78.62;100723.72;1861856;77;21597;-59
2021/06/10 23:30:35;;;;;;;11.00;8.05;;;;;;;14.32;78.62;100731.84;1861862;77;21091;-59
2021/06/10 23:33:04;;;;;;;12.88;7.70;;;;;;;14.28;78.64;100732.48;1861755;77;21476;-61
2021/06/10 23:35:33;;;;;;;11.63;7.60;;;;;;;14.24;78.67;100726.50;1861727;77;21562;-59
2021/06/10 23:38:04;;;;;;;15.30;9.23;;;;;;;14.21;78.73;100724.48;1861590;77;21045;-60
2021/06/10 23:40:32;;;;;;;13.00;8.95;;;;;;;14.16;78.71;100726.05;1861610;77;21094;-59
2021/06/10 23:43:00;;;;;;;17.10;9.48;;;;;;;14.09;78.71;100729.52;1861825;77;21104;-60
2021/06/10 23:45:28;;;;;;;11.88;8.75;;;;;;;14.04;78.76;100732.87;1861799;77;21512;-59
2021/06/10 23:47:57;;;;;;;14.30;8.93;;;;;;;14.01;78.86;100733.50;1861767;77;21504;-59
2021/06/10 23:50:26;;;;;;;12.90;8.48;;;;;;;14.00;79.04;100733.98;1861849;77;21034;-59
2021/06/10 23:52:54;;;;;;;13.55;8.50;;;;;;;13.98;79.06;100738.50;1861909;77;21061;-59
2021/06/10 23:55:22;;;;;;;16.32;10.28;;;;;;;13.97;79.19;100735.93;1861881;77;21086;-60
2021/06/10 23:57:50;;;;;;;13.15;8.95;;;;;;;13.98;79.41;100741.59;1861864;77;21599;-60
